createdAt,value
2019-05-15T00:01:40.960Z,68.20
2019-05-15T00:04:10.685Z,69.40
2019-05-15T00:06:40.020Z,68.30
2019-05-15T00:09:09.603Z,69.60
2019-05-15T00:11:39.166Z,70.20
2019-05-15T00:14:08.782Z,70.50
2019-05-15T00:16:39.896Z,70.60
2019-05-15T00:19:09.312Z,70.50
2019-05-15T00:21:38.632Z,70.90
2019-05-15T00:24:12.996Z,70.70
2019-05-15T00:26:39.018Z,73.90
2019-05-15T00:29:15.065Z,70.90
2019-05-15T00:31:39.379Z,72.10
2019-05-15T00:34:12.807Z,71.60
2019-05-15T00:36:40.122Z,72.10
2019-05-15T00:39:09.503Z,71.60
2019-05-15T00:41:50.450Z,73.00
2019-05-15T00:44:09.896Z,73.60
2019-05-15T00:46:39.277Z,73.30
2019-05-15T00:49:08.821Z,73.90
2019-05-15T00:51:39.018Z,74.20
2019-05-15T00:54:08.660Z,77.10
2019-05-15T00:56:39.179Z,75.30
2019-05-15T00:59:08.683Z,74.10
2019-05-15T01:01:38.329Z,75.30
2019-05-15T01:04:08.154Z,73.70
2019-05-15T01:06:38.910Z,74.30
2019-05-15T01:09:08.618Z,74.50
2019-05-15T01:11:38.306Z,74.50
2019-05-15T01:14:11.892Z,73.50
2019-05-15T01:16:38.917Z,77.90
2019-05-15T01:19:09.232Z,73.60
2019-05-15T01:21:38.830Z,74.30
2019-05-15T01:24:08.499Z,77.40
2019-05-15T01:26:38.478Z,76.80
2019-05-15T01:29:09.069Z,79.20
2019-05-15T01:31:38.610Z,77.40
2019-05-15T01:34:09.001Z,76.80
2019-05-15T01:36:38.607Z,76.30
2019-05-15T01:39:08.119Z,76.80
2019-05-15T01:41:38.642Z,75.30
2019-05-15T01:44:08.852Z,76.00
2019-05-15T01:46:39.397Z,73.60
2019-05-15T01:49:08.908Z,75.30
2019-05-15T01:51:38.622Z,74.60
2019-05-15T01:54:09.142Z,76.80
2019-05-15T01:56:39.736Z,76.10
2019-05-15T01:59:09.054Z,74.90
2019-05-15T02:01:39.153Z,76.50
2019-05-15T02:04:09.108Z,75.80
2019-05-15T02:06:39.114Z,77.40
2019-05-15T02:09:09.723Z,75.80
2019-05-15T02:11:39.043Z,77.00
2019-05-15T02:14:08.473Z,76.20
2019-05-15T02:16:39.308Z,76.40
2019-05-15T02:19:09.842Z,76.00
2019-05-15T02:21:39.188Z,78.80
2019-05-15T02:24:08.535Z,77.30
2019-05-15T02:26:38.874Z,78.20
2019-05-15T02:29:10.531Z,78.40
2019-05-15T02:31:39.578Z,80.50
2019-05-15T02:34:10.072Z,79.40
2019-05-15T02:36:40.341Z,79.40
2019-05-15T02:39:10.072Z,80.20
2019-05-15T02:41:39.968Z,79.10
2019-05-15T02:44:10.873Z,81.40
2019-05-15T02:46:40.484Z,82.30
2019-05-15T02:49:09.875Z,83.10
2019-05-15T02:51:40.092Z,81.60
2019-05-15T02:54:10.744Z,83.30
2019-05-15T02:56:40.292Z,82.50
2019-05-15T02:59:09.700Z,82.20
2019-05-15T03:01:40.587Z,83.00
2019-05-15T03:04:10.187Z,82.30
2019-05-15T03:06:39.513Z,83.10
2019-05-15T03:09:09.717Z,82.80
2019-05-15T03:11:40.803Z,80.80
2019-05-15T03:14:10.304Z,80.40
2019-05-15T03:16:39.825Z,81.80
2019-05-15T03:19:10.041Z,80.30
2019-05-15T03:21:39.759Z,80.30
2019-05-15T03:24:10.221Z,81.70
2019-05-15T03:26:39.781Z,81.20
2019-05-15T03:29:09.855Z,82.00
2019-05-15T03:31:57.588Z,82.70
2019-05-15T03:34:20.572Z,82.00
2019-05-15T03:36:45.043Z,81.40
2019-05-15T03:39:12.813Z,80.50
2019-05-15T03:41:42.223Z,80.90
2019-05-15T03:44:11.615Z,80.80
2019-05-15T03:46:41.157Z,81.00
2019-05-15T03:49:10.552Z,80.80
2019-05-15T03:51:45.452Z,80.80
2019-05-15T03:54:11.194Z,80.00
2019-05-15T03:56:40.549Z,80.50
2019-05-15T03:59:09.940Z,82.10
2019-05-15T04:01:43.588Z,81.80
2019-05-15T04:04:10.595Z,79.00
2019-05-15T04:06:40.894Z,81.50
2019-05-15T04:09:10.209Z,80.40
2019-05-15T04:11:39.562Z,80.40
2019-05-15T04:14:10.119Z,79.80
2019-05-15T04:16:39.851Z,79.60
2019-05-15T04:19:09.882Z,81.10
2019-05-15T04:21:43.936Z,80.60
2019-05-15T04:24:11.111Z,80.50
2019-05-15T04:26:42.276Z,80.00
2019-05-15T04:29:11.600Z,79.40
2019-05-15T04:31:51.653Z,80.60
2019-05-15T04:34:11.966Z,81.20
2019-05-15T04:36:44.474Z,79.70
2019-05-15T04:39:12.334Z,80.20
2019-05-15T04:41:41.720Z,79.10
2019-05-15T04:44:11.046Z,80.00
2019-05-15T04:46:40.361Z,78.60
2019-05-15T04:49:09.790Z,78.90
2019-05-15T04:51:39.358Z,78.70
2019-05-15T04:54:09.545Z,76.50
2019-05-15T04:56:40.027Z,78.90
2019-05-15T04:59:10.381Z,78.90
2019-05-15T05:01:40.421Z,76.80
2019-05-15T05:04:10.032Z,77.50
2019-05-15T05:06:40.372Z,79.20
2019-05-15T05:09:09.722Z,79.30
2019-05-15T05:11:39.103Z,79.80
2019-05-15T05:14:08.723Z,78.00
2019-05-15T05:16:39.357Z,77.00
2019-05-15T05:19:09.140Z,76.50
2019-05-15T05:21:38.711Z,78.30
2019-05-15T05:24:08.209Z,77.10
2019-05-15T05:26:38.369Z,78.50
2019-05-15T05:29:08.470Z,78.20
2019-05-15T05:31:39.074Z,78.50
2019-05-15T05:34:08.705Z,77.00
2019-05-15T05:36:38.693Z,77.20
2019-05-15T05:39:13.618Z,77.50
2019-05-15T05:41:40.604Z,77.30
2019-05-15T05:44:09.952Z,76.60
2019-05-15T05:46:39.885Z,76.90
2019-05-15T05:49:09.511Z,78.00
2019-05-15T05:51:39.944Z,78.20
2019-05-15T05:54:09.339Z,77.20
2019-05-15T05:56:38.919Z,78.90
2019-05-15T05:59:09.442Z,78.40
2019-05-15T06:01:43.727Z,75.90
2019-05-15T06:04:10.038Z,75.60
2019-05-15T06:06:39.388Z,75.90
2019-05-15T06:09:09.293Z,74.80
2019-05-15T06:11:38.879Z,75.80
2019-05-15T06:14:08.817Z,75.80
2019-05-15T06:16:38.775Z,75.20
2019-05-15T06:19:08.457Z,73.40
2019-05-15T06:21:39.349Z,75.60
2019-05-15T06:24:13.118Z,74.90
2019-05-15T06:26:39.936Z,74.90
2019-05-15T06:29:09.279Z,73.10
2019-05-15T06:31:38.914Z,73.40
2019-05-15T06:34:08.438Z,74.10
2019-05-15T06:36:39.345Z,73.30
2019-05-15T06:39:08.975Z,72.80
2019-05-15T06:41:39.105Z,72.60
2019-05-15T06:44:08.696Z,72.60
2019-05-15T06:46:39.309Z,73.20
2019-05-15T06:49:08.819Z,71.30
2019-05-15T06:51:38.170Z,72.00
2019-05-15T06:54:08.790Z,71.30
2019-05-15T06:56:38.860Z,72.60
2019-05-15T06:59:08.908Z,71.20
2019-05-15T07:01:38.682Z,71.60
2019-05-15T07:04:08.518Z,71.60
2019-05-15T07:06:38.275Z,72.20
2019-05-15T07:09:09.542Z,72.60
2019-05-15T07:11:39.141Z,76.60
2019-05-15T07:14:08.975Z,78.10
2019-05-15T07:16:39.050Z,77.40
2019-05-15T07:19:08.748Z,80.20
2019-05-15T07:21:38.747Z,81.70
2019-05-15T07:24:09.151Z,82.10
2019-05-15T07:26:39.295Z,83.80
2019-05-15T07:29:08.900Z,83.90
2019-05-15T07:31:38.507Z,85.90
2019-05-15T07:34:08.426Z,85.10
2019-05-15T07:36:39.067Z,87.10
2019-05-15T07:39:09.812Z,86.10
2019-05-15T07:41:39.389Z,87.30
2019-05-15T07:44:09.874Z,88.60
2019-05-15T07:46:39.194Z,88.30
2019-05-15T07:49:09.117Z,88.60
2019-05-15T07:51:38.642Z,91.00
2019-05-15T07:54:09.119Z,90.60
2019-05-15T07:56:38.781Z,90.90
2019-05-15T07:59:08.196Z,91.20
2019-05-15T08:01:38.683Z,90.50
2019-05-15T08:04:22.652Z,91.30
2019-05-15T08:06:39.323Z,91.50
2019-05-15T08:09:08.918Z,92.10
2019-05-15T08:11:39.183Z,91.30
2019-05-15T08:14:09.078Z,92.20
2019-05-15T08:16:39.445Z,91.80
2019-05-15T08:19:09.139Z,92.10
2019-05-15T08:21:38.700Z,91.80
2019-05-15T08:24:08.631Z,93.00
2019-05-15T08:26:45.304Z,92.30
2019-05-15T08:29:09.135Z,93.00
2019-05-15T08:31:38.987Z,92.80
2019-05-15T08:34:15.219Z,92.30
2019-05-15T08:36:41.131Z,93.00
2019-05-15T08:39:10.506Z,93.10
2019-05-15T08:41:39.835Z,93.00
2019-05-15T08:44:09.159Z,93.20
2019-05-15T08:46:38.847Z,93.40
2019-05-15T08:49:09.203Z,94.10
2019-05-15T08:51:38.861Z,94.70
2019-05-15T08:54:08.667Z,95.00
2019-05-15T08:56:39.313Z,94.80
2019-05-15T08:59:09.019Z,93.50
2019-05-15T09:01:38.493Z,94.00
2019-05-15T09:04:08.892Z,94.50
2019-05-15T09:06:41.354Z,94.50
2019-05-15T09:09:09.872Z,94.20
2019-05-15T09:11:39.571Z,93.80
2019-05-15T09:14:09.049Z,94.00
2019-05-15T09:16:38.869Z,93.90
2019-05-15T09:19:08.517Z,94.20
2019-05-15T09:21:38.765Z,94.10
2019-05-15T09:24:09.311Z,94.40
2019-05-15T09:26:40.462Z,95.20
2019-05-15T09:29:10.170Z,94.30
2019-05-15T09:31:39.675Z,95.00
2019-05-15T09:34:09.277Z,94.60
2019-05-15T09:36:42.246Z,94.80
2019-05-15T09:39:29.205Z,95.20
2019-05-15T09:41:58.602Z,95.50
2019-05-15T09:44:28.342Z,94.60
2019-05-15T09:46:58.457Z,95.70
2019-05-15T09:49:29.858Z,95.40
2019-05-15T09:51:59.231Z,96.20
2019-05-15T09:54:29.221Z,97.10
2019-05-15T09:56:58.909Z,96.20
2019-05-15T09:59:28.342Z,96.30
2019-05-15T10:01:58.881Z,96.00
2019-05-15T10:04:28.909Z,96.20
2019-05-15T10:06:58.647Z,96.20
2019-05-15T10:09:28.544Z,96.90
2019-05-15T10:11:58.152Z,96.10
2019-05-15T10:14:29.656Z,96.40
2019-05-15T10:16:58.601Z,96.20
2019-05-15T10:19:28.978Z,96.00
2019-05-15T10:21:59.515Z,96.90
2019-05-15T10:24:29.119Z,96.70
2019-05-15T10:26:58.442Z,97.10
2019-05-15T10:29:28.121Z,97.00
2019-05-15T10:31:57.695Z,97.10
2019-05-15T10:34:28.916Z,96.90
2019-05-15T10:36:58.904Z,97.00
2019-05-15T10:39:28.893Z,98.40
2019-05-15T10:41:58.704Z,98.30
2019-05-15T10:44:29.347Z,97.10
2019-05-15T10:46:58.696Z,97.50
2019-05-15T10:49:28.297Z,98.00
2019-05-15T10:51:57.767Z,97.50
2019-05-15T10:54:28.964Z,97.90
2019-05-15T10:57:00.554Z,98.30
2019-05-15T10:59:29.171Z,97.90
2019-05-15T11:01:59.069Z,97.60
2019-05-15T11:04:28.945Z,97.10
2019-05-15T11:06:58.456Z,97.40
2019-05-15T11:09:28.638Z,97.40
2019-05-15T11:11:58.453Z,97.80
2019-05-15T11:14:28.655Z,96.50
2019-05-15T11:16:58.926Z,97.20
2019-05-15T11:19:35.770Z,96.80
2019-05-15T11:21:59.535Z,96.40
2019-05-15T11:24:32.311Z,97.50
2019-05-15T11:26:59.975Z,96.80
2019-05-15T11:29:29.438Z,95.90
2019-05-15T11:31:58.800Z,96.80
2019-05-15T11:34:28.972Z,97.10
2019-05-15T11:36:59.325Z,97.10
2019-05-15T11:39:29.046Z,97.00
2019-05-15T11:41:58.469Z,96.50
2019-05-15T11:44:28.222Z,97.90
2019-05-15T11:46:58.713Z,97.00
2019-05-15T11:49:29.093Z,98.20
2019-05-15T11:52:00.484Z,96.70
2019-05-15T11:54:49.487Z,97.50
2019-05-15T11:57:19.180Z,97.70
2019-05-15T11:59:55.368Z,97.50
2019-05-15T12:02:20.159Z,96.90
2019-05-15T12:04:49.521Z,97.20
2019-05-15T12:07:18.854Z,97.80
2019-05-15T12:09:48.269Z,97.30
2019-05-15T12:12:18.712Z,97.60
2019-05-15T12:14:49.588Z,97.50
2019-05-15T12:17:19.169Z,97.60
2019-05-15T12:19:55.082Z,97.40
2019-05-15T12:22:19.639Z,98.40
2019-05-15T12:24:50.154Z,98.40
2019-05-15T12:27:19.771Z,98.40
2019-05-15T12:29:49.407Z,97.60
2019-05-15T12:32:28.698Z,98.30
2019-05-15T12:34:49.921Z,97.80
2019-05-15T12:37:19.831Z,98.10
2019-05-15T13:00:00.820Z,97.90
2019-05-15T13:02:30.163Z,98.50
2019-05-15T13:04:59.550Z,98.80
2019-05-15T13:07:28.882Z,98.30
2019-05-15T13:09:58.199Z,98.30
2019-05-15T13:12:28.829Z,98.30
2019-05-15T13:14:59.063Z,98.00
2019-05-15T13:17:29.147Z,98.20
2019-05-15T13:19:58.808Z,97.80
2019-05-15T13:22:28.307Z,98.20
2019-05-15T13:24:58.873Z,98.60
2019-05-15T13:27:28.436Z,97.80
2019-05-15T13:29:58.367Z,98.20
2019-05-15T13:32:28.554Z,98.50
2019-05-15T13:34:59.483Z,98.40
2019-05-15T13:37:30.943Z,98.00
2019-05-15T13:40:00.129Z,98.10
2019-05-15T13:42:29.548Z,98.30
2019-05-15T13:44:59.001Z,98.10
2019-05-15T13:47:28.387Z,98.00
2019-05-15T13:49:58.616Z,97.90
2019-05-15T13:52:28.411Z,98.30
2019-05-15T13:54:57.974Z,98.40
2019-05-15T13:57:29.764Z,98.80
2019-05-15T13:59:58.879Z,98.60
2019-05-15T14:02:28.571Z,97.60
2019-05-15T14:04:58.366Z,97.90
2019-05-15T14:07:30.072Z,98.30
2019-05-15T14:09:59.870Z,98.30
2019-05-15T14:12:29.440Z,98.20
2019-05-15T14:14:58.794Z,98.40
2019-05-15T14:17:28.367Z,98.10
2019-05-15T14:19:58.795Z,98.00
2019-05-15T14:22:28.152Z,98.10
2019-05-15T14:24:58.411Z,98.40
2019-05-15T14:27:28.926Z,98.00
2019-05-15T14:29:58.902Z,98.70
2019-05-15T14:32:37.689Z,98.20
2019-05-15T14:34:59.382Z,97.60
2019-05-15T14:37:28.831Z,98.10
2019-05-15T14:39:58.235Z,98.10
2019-05-15T14:42:29.267Z,98.60
2019-05-15T14:44:59.261Z,98.30
2019-05-15T14:47:29.900Z,98.00
2019-05-15T14:49:59.339Z,98.20
2019-05-15T14:52:28.771Z,97.90
2019-05-15T14:54:58.995Z,98.20
2019-05-15T14:57:28.885Z,97.50
2019-05-15T14:59:58.258Z,97.60
2019-05-15T15:02:27.592Z,97.70
2019-05-15T15:04:59.507Z,97.40
2019-05-15T15:07:28.348Z,97.40
2019-05-15T15:09:58.225Z,96.90
2019-05-15T15:12:28.364Z,97.90
2019-05-15T15:14:57.919Z,97.50
2019-05-15T15:17:28.902Z,97.40
2019-05-15T15:20:00.268Z,96.90
2019-05-15T15:22:29.627Z,97.90
2019-05-15T15:24:59.779Z,98.20
2019-05-15T15:27:29.338Z,98.10
2019-05-15T15:29:58.671Z,98.20
2019-05-15T15:32:28.643Z,97.50
2019-05-15T15:34:58.725Z,97.50
2019-05-15T15:37:28.737Z,97.30
2019-05-15T15:39:58.796Z,96.80
2019-05-15T15:42:28.649Z,97.50
2019-05-15T15:44:58.251Z,97.00
2019-05-15T15:47:28.148Z,96.80
2019-05-15T15:49:58.535Z,96.00
2019-05-15T15:52:28.962Z,96.70
2019-05-15T15:54:58.610Z,96.90
2019-05-15T15:57:28.537Z,97.20
2019-05-15T15:59:58.076Z,97.10
2019-05-15T16:02:28.145Z,97.00
2019-05-15T16:04:58.932Z,96.30
2019-05-15T16:07:28.472Z,96.60
2019-05-15T16:09:58.861Z,97.00
2019-05-15T16:12:28.409Z,96.90
2019-05-15T16:14:57.977Z,96.20
2019-05-15T16:17:28.581Z,95.90
2019-05-15T16:19:58.193Z,95.50
2019-05-15T16:22:28.398Z,94.70
2019-05-15T16:24:58.709Z,95.10
2019-05-15T16:27:28.831Z,95.80
2019-05-15T16:29:58.536Z,95.10
2019-05-15T16:32:28.901Z,95.60
2019-05-15T16:34:58.735Z,95.80
2019-05-15T16:37:28.467Z,96.60
2019-05-15T16:39:59.875Z,95.40
2019-05-15T16:42:28.895Z,96.20
2019-05-15T16:44:58.500Z,95.50
2019-05-15T16:47:28.108Z,94.80
2019-05-15T16:49:58.035Z,95.00
2019-05-15T16:52:30.950Z,95.60
2019-05-15T16:54:58.778Z,96.00
2019-05-15T16:57:28.476Z,95.40
2019-05-15T16:59:58.553Z,96.20
2019-05-15T17:02:28.314Z,97.10
2019-05-15T17:04:57.840Z,97.40
2019-05-15T17:07:29.003Z,96.20
2019-05-15T17:09:58.699Z,96.40
2019-05-15T17:12:28.163Z,97.20
2019-05-15T17:14:58.325Z,96.10
2019-05-15T17:17:28.047Z,96.20
2019-05-15T17:19:57.927Z,96.50
2019-05-15T17:22:40.228Z,97.60
2019-05-15T17:25:09.966Z,96.80
2019-05-15T17:27:39.311Z,96.90
2019-05-15T17:30:09.555Z,96.90
2019-05-15T17:32:40.656Z,97.30
2019-05-15T17:35:10.530Z,97.10
2019-05-15T17:37:39.906Z,96.50
2019-05-15T17:40:10.157Z,96.60
2019-05-15T17:42:39.554Z,97.80
2019-05-15T17:45:09.555Z,96.90
2019-05-15T17:47:39.720Z,97.00
2019-05-15T17:50:10.603Z,96.80
2019-05-15T17:52:39.964Z,96.70
2019-05-15T17:55:09.888Z,96.70
2019-05-15T17:57:39.280Z,96.60
2019-05-15T18:00:12.515Z,96.60
2019-05-15T18:02:40.683Z,95.80
2019-05-15T18:05:10.718Z,96.30
2019-05-15T18:07:40.034Z,96.10
2019-05-15T18:10:09.910Z,96.80
2019-05-15T18:12:40.203Z,96.10
2019-05-15T18:15:10.005Z,95.80
2019-05-15T18:17:40.536Z,96.50
2019-05-15T18:20:10.961Z,96.50
2019-05-15T18:22:40.384Z,96.10
2019-05-15T18:25:09.987Z,96.60
2019-05-15T18:27:39.378Z,96.70
2019-05-15T18:30:09.524Z,97.00
2019-05-15T18:32:39.414Z,96.40
2019-05-15T18:35:09.046Z,96.80
2019-05-15T18:37:39.452Z,97.00
2019-05-15T18:40:10.224Z,96.70
2019-05-15T18:42:39.994Z,96.90
2019-05-15T18:45:10.361Z,97.20
2019-05-15T18:47:39.742Z,96.70
2019-05-15T18:50:13.083Z,96.90
2019-05-15T18:52:41.244Z,96.60
2019-05-15T18:55:10.926Z,96.90
2019-05-15T18:57:40.360Z,97.30
2019-05-15T19:00:11.724Z,96.80
2019-05-15T19:02:41.398Z,97.00
2019-05-15T19:05:10.923Z,97.20
2019-05-15T19:07:40.494Z,96.70
2019-05-15T19:10:10.355Z,97.80
2019-05-15T19:12:39.854Z,98.20
2019-05-15T19:15:09.599Z,98.00
2019-05-15T19:17:39.191Z,98.00
2019-05-15T19:20:09.216Z,97.90
2019-05-15T19:22:41.006Z,97.00
2019-05-15T19:25:10.534Z,96.60
2019-05-15T19:27:39.897Z,97.20
2019-05-15T19:30:10.380Z,97.70
2019-05-15T19:32:39.807Z,98.30
2019-05-15T19:35:09.374Z,98.20
2019-05-15T19:37:39.107Z,97.60
2019-05-15T19:40:09.871Z,97.60
2019-05-15T19:42:39.295Z,98.10
2019-05-15T19:45:09.437Z,97.80
2019-05-15T19:47:39.084Z,98.10
2019-05-15T19:50:10.732Z,98.50
2019-05-15T19:52:40.668Z,98.40
2019-05-15T19:55:11.134Z,97.80
2019-05-15T19:57:40.470Z,97.80
2019-05-15T20:00:10.940Z,97.60
2019-05-15T20:02:40.621Z,97.30
2019-05-15T20:05:10.480Z,97.40
2019-05-15T20:07:40.857Z,97.30
2019-05-15T20:10:12.204Z,97.50
2019-05-15T20:12:41.762Z,97.40
2019-05-15T20:15:11.938Z,97.50
2019-05-15T20:17:41.637Z,97.30
2019-05-15T20:20:11.807Z,97.00
2019-05-15T20:22:41.514Z,96.90
2019-05-15T20:25:11.526Z,96.70
2019-05-15T20:27:40.848Z,97.10
2019-05-15T20:30:10.704Z,97.40
2019-05-15T20:32:40.266Z,97.20
2019-05-15T20:35:10.775Z,97.50
2019-05-15T20:37:41.578Z,97.40
2019-05-15T20:40:11.867Z,96.90
2019-05-15T20:42:41.291Z,97.30
2019-05-15T20:45:12.233Z,97.40
2019-05-15T20:47:41.975Z,97.40
2019-05-15T20:50:11.668Z,97.90
2019-05-15T20:52:41.058Z,97.40
2019-05-15T20:55:10.471Z,97.00
2019-05-15T20:57:41.031Z,96.80
2019-05-15T21:00:13.583Z,96.90
2019-05-15T21:02:43.067Z,97.00
2019-05-15T21:05:12.573Z,97.00
2019-05-15T21:07:43.246Z,96.80
2019-05-15T21:10:13.442Z,96.30
2019-05-15T21:12:43.052Z,97.40
2019-05-15T21:15:14.611Z,96.80
2019-05-15T21:17:45.275Z,97.20
2019-05-15T21:20:18.078Z,97.00
2019-05-15T21:22:49.051Z,97.00
2019-05-15T21:25:19.650Z,97.00
2019-05-15T21:27:49.181Z,97.10
2019-05-15T21:30:19.770Z,96.80
2019-05-15T21:32:49.678Z,96.90
2019-05-15T21:35:19.265Z,96.70
2019-05-15T21:37:49.124Z,97.00
2019-05-15T21:40:18.722Z,96.90
2019-05-15T21:42:49.164Z,97.50
2019-05-15T21:45:18.970Z,97.30
2019-05-15T21:47:48.341Z,97.70
2019-05-15T21:50:19.374Z,98.20
2019-05-15T21:52:49.574Z,98.00
2019-05-15T21:55:19.148Z,97.90
2019-05-15T21:57:48.562Z,98.50
2019-05-15T22:00:25.179Z,97.40
2019-05-15T22:02:58.498Z,97.80
2019-05-15T22:05:28.583Z,97.80
2019-05-15T22:07:58.697Z,97.30
2019-05-15T22:10:29.320Z,97.00
2019-05-15T22:12:59.159Z,97.40
2019-05-15T22:15:29.155Z,97.40
2019-05-15T22:17:58.473Z,97.10
2019-05-15T22:20:30.378Z,96.90
2019-05-15T22:22:59.703Z,97.50
2019-05-15T22:25:30.122Z,97.60
2019-05-15T22:28:00.927Z,97.00
2019-05-15T22:30:30.484Z,97.10
2019-05-15T22:33:00.015Z,97.30
2019-05-15T22:35:29.786Z,97.00
2019-05-15T22:37:59.218Z,96.70
2019-05-15T22:40:29.135Z,97.20
2019-05-15T22:42:59.572Z,96.90
2019-05-15T22:45:29.334Z,96.80
2019-05-15T22:47:58.832Z,97.50
2019-05-15T22:50:28.409Z,97.30
2019-05-15T22:52:58.639Z,97.20
2019-05-15T22:55:29.075Z,97.60
2019-05-15T22:57:59.833Z,97.40
2019-05-15T23:00:29.960Z,97.20
2019-05-15T23:02:59.376Z,97.10
2019-05-15T23:05:31.847Z,97.10
2019-05-15T23:07:59.853Z,97.50
2019-05-15T23:10:29.473Z,97.00
2019-05-15T23:12:59.931Z,96.90
2019-05-15T23:15:29.363Z,97.20
2019-05-15T23:17:59.751Z,97.70
2019-05-15T23:20:29.175Z,97.70
2019-05-15T23:22:58.683Z,97.60
2019-05-15T23:25:29.330Z,97.50
2019-05-15T23:27:58.676Z,97.50
2019-05-15T23:30:28.937Z,97.60
2019-05-15T23:32:58.531Z,97.30
2019-05-15T23:35:35.431Z,97.50
2019-05-15T23:37:59.003Z,97.60
2019-05-15T23:40:28.814Z,97.30
2019-05-15T23:42:59.407Z,97.60
2019-05-15T23:45:28.988Z,97.70
2019-05-15T23:47:58.556Z,97.70
2019-05-15T23:50:28.809Z,97.80
2019-05-15T23:52:59.484Z,97.90
2019-05-15T23:55:28.914Z,98.00
2019-05-15T23:57:58.534Z,98.30
